sensor_id;sensor_type;location;lat;lon;timestamp;P1;durP1;ratioP1;P2;durP2;ratioP2
10056;SDS011;5068;51.286;7.518;2022-11-20T00:00:05;7.85;;;4.15;;
10056;SDS011;5068;51.286;7.518;2022-11-20T00:01:52;7.97;;;4.43;;
10056;SDS011;5068;51.286;7.518;2022-11-20T00:03:26;7.63;;;4.05;;
10056;SDS011;5068;51.286;7.518;2022-11-20T00:04:58;8.35;;;4.10;;
10056;SDS011;5068;51.286;7.518;2022-11-20T00:06:31;8.50;;;4.40;;
10056;SDS011;5068;51.286;7.518;2022-11-20T00:08:05;7.75;;;4.25;;
10056;SDS011;5068;51.286;7.518;2022-11-20T00:09:37;8.70;;;4.85;;
10056;SDS011;5068;51.286;7.518;2022-11-20T00:11:11;9.35;;;4.88;;
10056;SDS011;5068;51.286;7.518;2022-11-20T00:12:47;5.75;;;3.65;;
10056;SDS011;5068;51.286;7.518;2022-11-20T00:14:20;8.43;;;4.82;;
10056;SDS011;5068;51.286;7.518;2022-11-20T00:15:56;7.18;;;4.10;;
10056;SDS011;5068;51.286;7.518;2022-11-20T00:17:30;7.38;;;4.25;;
10056;SDS011;5068;51.286;7.518;2022-11-20T00:19:03;7.45;;;4.70;;
10056;SDS011;5068;51.286;7.518;2022-11-20T00:20:37;8.95;;;3.78;;
10056;SDS011;5068;51.286;7.518;2022-11-20T00:22:09;8.13;;;4.32;;
10056;SDS011;5068;51.286;7.518;2022-11-20T00:23:43;6.68;;;3.90;;
10056;SDS011;5068;51.286;7.518;2022-11-20T00:25:17;8.57;;;4.18;;
10056;SDS011;5068;51.286;7.518;2022-11-20T00:26:49;6.50;;;3.75;;
10056;SDS011;5068;51.286;7.518;2022-11-20T00:28:22;7.43;;;3.97;;
10056;SDS011;5068;51.286;7.518;2022-11-20T00:29:56;6.85;;;3.85;;
10056;SDS011;5068;51.286;7.518;2022-11-20T00:31:29;6.78;;;3.60;;
10056;SDS011;5068;51.286;7.518;2022-11-20T00:34:38;7.28;;;3.78;;
10056;SDS011;5068;51.286;7.518;2022-11-20T00:36:12;6.53;;;3.17;;
10056;SDS011;5068;51.286;7.518;2022-11-20T00:37:48;6.63;;;3.88;;
10056;SDS011;5068;51.286;7.518;2022-11-20T00:39:22;6.93;;;3.67;;
10056;SDS011;5068;51.286;7.518;2022-11-20T00:40:56;7.97;;;4.60;;
10056;SDS011;5068;51.286;7.518;2022-11-20T00:42:30;7.07;;;3.63;;
10056;SDS011;5068;51.286;7.518;2022-11-20T00:44:04;7.25;;;3.90;;
10056;SDS011;5068;51.286;7.518;2022-11-20T00:45:37;7.22;;;3.90;;
10056;SDS011;5068;51.286;7.518;2022-11-20T00:47:11;7.43;;;4.18;;
10056;SDS011;5068;51.286;7.518;2022-11-20T00:48:46;8.95;;;4.10;;
10056;SDS011;5068;51.286;7.518;2022-11-20T00:50:20;7.88;;;3.95;;
10056;SDS011;5068;51.286;7.518;2022-11-20T00:51:53;7.30;;;4.00;;
10056;SDS011;5068;51.286;7.518;2022-11-20T00:53:26;8.82;;;3.97;;
10056;SDS011;5068;51.286;7.518;2022-11-20T00:55:00;7.30;;;4.47;;
10056;SDS011;5068;51.286;7.518;2022-11-20T00:56:33;7.38;;;4.70;;
10056;SDS011;5068;51.286;7.518;2022-11-20T00:58:05;8.25;;;4.70;;
10056;SDS011;5068;51.286;7.518;2022-11-20T00:59:44;7.90;;;4.55;;
10056;SDS011;5068;51.286;7.518;2022-11-20T01:01:18;7.05;;;4.40;;
10056;SDS011;5068;51.286;7.518;2022-11-20T01:02:55;7.40;;;4.22;;
10056;SDS011;5068;51.286;7.518;2022-11-20T01:04:30;6.00;;;3.78;;
10056;SDS011;5068;51.286;7.518;2022-11-20T01:06:04;8.30;;;4.15;;
10056;SDS011;5068;51.286;7.518;2022-11-20T01:07:39;8.10;;;4.10;;
10056;SDS011;5068;51.286;7.518;2022-11-20T01:09:13;6.38;;;3.78;;
10056;SDS011;5068;51.286;7.518;2022-11-20T01:10:46;6.35;;;3.70;;
10056;SDS011;5068;51.286;7.518;2022-11-20T01:12:19;7.65;;;4.38;;
10056;SDS011;5068;51.286;7.518;2022-11-20T01:13:52;6.70;;;3.92;;
10056;SDS011;5068;51.286;7.518;2022-11-20T01:15:26;6.22;;;3.70;;
10056;SDS011;5068;51.286;7.518;2022-11-20T01:16:59;6.53;;;3.63;;
10056;SDS011;5068;51.286;7.518;2022-11-20T01:18:33;6.93;;;4.60;;
10056;SDS011;5068;51.286;7.518;2022-11-20T01:20:08;7.70;;;4.57;;
10056;SDS011;5068;51.286;7.518;2022-11-20T01:21:43;7.47;;;4.72;;
10056;SDS011;5068;51.286;7.518;2022-11-20T01:23:18;6.25;;;3.85;;
10056;SDS011;5068;51.286;7.518;2022-11-20T01:24:51;8.02;;;4.70;;
10056;SDS011;5068;51.286;7.518;2022-11-20T01:26:25;7.10;;;4.50;;
10056;SDS011;5068;51.286;7.518;2022-11-20T01:27:59;11.35;;;5.32;;
10056;SDS011;5068;51.286;7.518;2022-11-20T01:29:33;7.88;;;4.93;;
10056;SDS011;5068;51.286;7.518;2022-11-20T01:31:10;8.63;;;5.28;;
10056;SDS011;5068;51.286;7.518;2022-11-20T01:32:46;8.93;;;4.70;;
10056;SDS011;5068;51.286;7.518;2022-11-20T01:34:20;9.60;;;5.18;;
10056;SDS011;5068;51.286;7.518;2022-11-20T01:36:04;8.05;;;4.72;;
10056;SDS011;5068;51.286;7.518;2022-11-20T01:37:39;7.95;;;4.65;;
10056;SDS011;5068;51.286;7.518;2022-11-20T01:39:13;9.13;;;5.45;;
10056;SDS011;5068;51.286;7.518;2022-11-20T01:40:53;9.05;;;5.18;;
10056;SDS011;5068;51.286;7.518;2022-11-20T01:42:26;9.65;;;5.15;;
10056;SDS011;5068;51.286;7.518;2022-11-20T01:44:19;8.07;;;5.03;;
10056;SDS011;5068;51.286;7.518;2022-11-20T01:46:14;8.40;;;5.40;;
10056;SDS011;5068;51.286;7.518;2022-11-20T01:47:51;9.63;;;5.30;;
10056;SDS011;5068;51.286;7.518;2022-11-20T01:49:24;9.60;;;5.47;;
10056;SDS011;5068;51.286;7.518;2022-11-20T01:51:09;8.43;;;4.95;;
10056;SDS011;5068;51.286;7.518;2022-11-20T01:52:52;10.88;;;5.90;;
10056;SDS011;5068;51.286;7.518;2022-11-20T01:54:31;9.25;;;5.38;;
10056;SDS011;5068;51.286;7.518;2022-11-20T01:56:11;11.60;;;5.80;;
10056;SDS011;5068;51.286;7.518;2022-11-20T01:57:46;8.40;;;5.93;;
10056;SDS011;5068;51.286;7.518;2022-11-20T01:59:21;8.25;;;5.28;;
10056;SDS011;5068;51.286;7.518;2022-11-20T02:00:58;10.10;;;5.30;;
10056;SDS011;5068;51.286;7.518;2022-11-20T02:02:32;8.02;;;5.32;;
10056;SDS011;5068;51.286;7.518;2022-11-20T02:04:07;9.45;;;5.97;;
10056;SDS011;5068;51.286;7.518;2022-11-20T02:05:43;9.88;;;6.03;;
10056;SDS011;5068;51.286;7.518;2022-11-20T02:07:25;9.23;;;5.65;;
10056;SDS011;5068;51.286;7.518;2022-11-20T02:09:00;9.13;;;5.60;;
10056;SDS011;5068;51.286;7.518;2022-11-20T02:10:34;9.10;;;4.88;;
10056;SDS011;5068;51.286;7.518;2022-11-20T02:12:07;8.60;;;5.22;;
10056;SDS011;5068;51.286;7.518;2022-11-20T02:14:01;8.30;;;5.40;;
10056;SDS011;5068;51.286;7.518;2022-11-20T02:15:33;9.10;;;5.13;;
10056;SDS011;5068;51.286;7.518;2022-11-20T02:17:06;9.20;;;5.38;;
10056;SDS011;5068;51.286;7.518;2022-11-20T02:18:41;8.88;;;5.60;;
10056;SDS011;5068;51.286;7.518;2022-11-20T02:20:15;8.35;;;5.22;;
10056;SDS011;5068;51.286;7.518;2022-11-20T02:21:51;9.38;;;5.13;;
10056;SDS011;5068;51.286;7.518;2022-11-20T02:23:38;9.50;;;5.43;;
10056;SDS011;5068;51.286;7.518;2022-11-20T02:25:25;9.13;;;5.10;;
10056;SDS011;5068;51.286;7.518;2022-11-20T02:27:01;8.60;;;4.43;;
10056;SDS011;5068;51.286;7.518;2022-11-20T02:28:39;8.45;;;5.00;;
10056;SDS011;5068;51.286;7.518;2022-11-20T02:30:12;8.43;;;5.10;;
10056;SDS011;5068;51.286;7.518;2022-11-20T02:31:45;8.30;;;4.95;;
10056;SDS011;5068;51.286;7.518;2022-11-20T02:33:19;7.30;;;4.63;;
10056;SDS011;5068;51.286;7.518;2022-11-20T02:34:51;8.18;;;4.70;;
10056;SDS011;5068;51.286;7.518;2022-11-20T02:36:26;7.68;;;4.55;;
10056;SDS011;5068;51.286;7.518;2022-11-20T02:38:01;8.68;;;5.07;;
10056;SDS011;5068;51.286;7.518;2022-11-20T02:39:37;9.80;;;5.22;;
10056;SDS011;5068;51.286;7.518;2022-11-20T02:41:10;8.10;;;5.18;;
10056;SDS011;5068;51.286;7.518;2022-11-20T02:42:43;7.82;;;4.88;;
10056;SDS011;5068;51.286;7.518;2022-11-20T02:44:16;7.03;;;4.40;;
10056;SDS011;5068;51.286;7.518;2022-11-20T02:45:49;7.97;;;4.60;;
10056;SDS011;5068;51.286;7.518;2022-11-20T02:47:22;8.32;;;4.53;;
10056;SDS011;5068;51.286;7.518;2022-11-20T02:48:56;7.32;;;4.70;;
10056;SDS011;5068;51.286;7.518;2022-11-20T02:50:29;8.18;;;4.43;;
10056;SDS011;5068;51.286;7.518;2022-11-20T02:52:03;7.93;;;4.63;;
10056;SDS011;5068;51.286;7.518;2022-11-20T02:53:36;8.15;;;4.70;;
10056;SDS011;5068;51.286;7.518;2022-11-20T02:55:10;8.18;;;5.00;;
10056;SDS011;5068;51.286;7.518;2022-11-20T02:56:44;6.90;;;4.20;;
10056;SDS011;5068;51.286;7.518;2022-11-20T02:58:17;8.23;;;4.78;;
10056;SDS011;5068;51.286;7.518;2022-11-20T02:59:50;9.25;;;5.50;;
10056;SDS011;5068;51.286;7.518;2022-11-20T03:01:24;9.07;;;5.35;;
10056;SDS011;5068;51.286;7.518;2022-11-20T03:02:57;10.35;;;5.72;;
10056;SDS011;5068;51.286;7.518;2022-11-20T03:04:29;11.80;;;6.65;;
10056;SDS011;5068;51.286;7.518;2022-11-20T03:06:03;13.50;;;8.18;;
10056;SDS011;5068;51.286;7.518;2022-11-20T03:07:37;15.07;;;8.60;;
10056;SDS011;5068;51.286;7.518;2022-11-20T03:09:11;16.15;;;9.40;;
10056;SDS011;5068;51.286;7.518;2022-11-20T03:10:46;19.17;;;11.65;;
10056;SDS011;5068;51.286;7.518;2022-11-20T03:12:19;18.58;;;10.65;;
10056;SDS011;5068;51.286;7.518;2022-11-20T03:13:52;18.52;;;9.73;;
10056;SDS011;5068;51.286;7.518;2022-11-20T03:15:26;16.67;;;10.10;;
10056;SDS011;5068;51.286;7.518;2022-11-20T03:16:59;16.45;;;8.90;;
10056;SDS011;5068;51.286;7.518;2022-11-20T03:18:32;15.73;;;8.70;;
10056;SDS011;5068;51.286;7.518;2022-11-20T03:20:05;13.73;;;7.75;;
10056;SDS011;5068;51.286;7.518;2022-11-20T03:21:40;13.77;;;7.97;;
10056;SDS011;5068;51.286;7.518;2022-11-20T03:23:12;13.57;;;7.45;;
10056;SDS011;5068;51.286;7.518;2022-11-20T03:24:46;13.73;;;8.43;;
10056;SDS011;5068;51.286;7.518;2022-11-20T03:26:21;14.35;;;7.63;;
10056;SDS011;5068;51.286;7.518;2022-11-20T03:27:57;11.23;;;6.28;;
10056;SDS011;5068;51.286;7.518;2022-11-20T03:29:30;11.80;;;7.03;;
10056;SDS011;5068;51.286;7.518;2022-11-20T03:31:07;12.82;;;6.63;;
10056;SDS011;5068;51.286;7.518;2022-11-20T03:32:43;11.68;;;6.38;;
10056;SDS011;5068;51.286;7.518;2022-11-20T03:34:16;10.70;;;5.70;;
10056;SDS011;5068;51.286;7.518;2022-11-20T03:35:49;10.07;;;5.60;;
10056;SDS011;5068;51.286;7.518;2022-11-20T03:37:23;9.02;;;5.18;;
10056;SDS011;5068;51.286;7.518;2022-11-20T03:38:56;8.52;;;5.00;;
10056;SDS011;5068;51.286;7.518;2022-11-20T03:40:30;9.40;;;5.00;;
10056;SDS011;5068;51.286;7.518;2022-11-20T03:42:06;8.68;;;5.30;;
10056;SDS011;5068;51.286;7.518;2022-11-20T03:44:01;12.27;;;6.70;;
10056;SDS011;5068;51.286;7.518;2022-11-20T03:45:36;11.55;;;5.88;;
10056;SDS011;5068;51.286;7.518;2022-11-20T03:47:09;9.50;;;5.38;;
10056;SDS011;5068;51.286;7.518;2022-11-20T03:48:42;9.60;;;5.22;;
10056;SDS011;5068;51.286;7.518;2022-11-20T03:50:22;9.45;;;5.30;;
10056;SDS011;5068;51.286;7.518;2022-11-20T03:51:55;9.45;;;5.80;;
10056;SDS011;5068;51.286;7.518;2022-11-20T03:53:28;9.48;;;5.00;;
10056;SDS011;5068;51.286;7.518;2022-11-20T03:55:02;8.57;;;5.25;;
10056;SDS011;5068;51.286;7.518;2022-11-20T03:56:36;9.07;;;5.45;;
10056;SDS011;5068;51.286;7.518;2022-11-20T03:58:12;8.23;;;5.15;;
10056;SDS011;5068;51.286;7.518;2022-11-20T03:59:45;10.27;;;5.65;;
10056;SDS011;5068;51.286;7.518;2022-11-20T04:01:18;9.15;;;5.50;;
10056;SDS011;5068;51.286;7.518;2022-11-20T04:02:57;9.68;;;5.45;;
10056;SDS011;5068;51.286;7.518;2022-11-20T04:04:31;9.15;;;5.20;;
10056;SDS011;5068;51.286;7.518;2022-11-20T04:06:04;10.30;;;4.93;;
10056;SDS011;5068;51.286;7.518;2022-11-20T04:07:41;9.00;;;5.55;;
10056;SDS011;5068;51.286;7.518;2022-11-20T04:09:13;10.68;;;5.88;;
10056;SDS011;5068;51.286;7.518;2022-11-20T04:10:47;9.48;;;5.55;;
10056;SDS011;5068;51.286;7.518;2022-11-20T04:12:20;10.05;;;5.03;;
10056;SDS011;5068;51.286;7.518;2022-11-20T04:13:55;9.45;;;5.82;;
10056;SDS011;5068;51.286;7.518;2022-11-20T04:15:30;7.70;;;4.63;;
10056;SDS011;5068;51.286;7.518;2022-11-20T04:17:08;7.68;;;5.25;;
10056;SDS011;5068;51.286;7.518;2022-11-20T04:18:41;8.07;;;4.93;;
10056;SDS011;5068;51.286;7.518;2022-11-20T04:20:15;8.57;;;5.35;;
10056;SDS011;5068;51.286;7.518;2022-11-20T04:21:49;8.70;;;5.07;;
10056;SDS011;5068;51.286;7.518;2022-11-20T04:23:22;9.25;;;5.32;;
10056;SDS011;5068;51.286;7.518;2022-11-20T04:24:59;9.93;;;6.07;;
10056;SDS011;5068;51.286;7.518;2022-11-20T04:26:32;9.50;;;5.22;;
10056;SDS011;5068;51.286;7.518;2022-11-20T04:28:06;8.15;;;5.00;;
10056;SDS011;5068;51.286;7.518;2022-11-20T04:29:40;9.52;;;5.65;;
10056;SDS011;5068;51.286;7.518;2022-11-20T04:31:14;10.32;;;5.93;;
10056;SDS011;5068;51.286;7.518;2022-11-20T04:32:48;10.35;;;5.55;;
10056;SDS011;5068;51.286;7.518;2022-11-20T04:34:22;8.32;;;4.80;;
10056;SDS011;5068;51.286;7.518;2022-11-20T04:35:55;10.98;;;5.55;;
10056;SDS011;5068;51.286;7.518;2022-11-20T04:37:33;8.75;;;4.63;;
10056;SDS011;5068;51.286;7.518;2022-11-20T04:39:06;10.73;;;6.45;;
10056;SDS011;5068;51.286;7.518;2022-11-20T04:40:44;10.70;;;5.30;;
10056;SDS011;5068;51.286;7.518;2022-11-20T04:42:16;9.80;;;5.13;;
10056;SDS011;5068;51.286;7.518;2022-11-20T04:44:02;10.90;;;5.43;;
10056;SDS011;5068;51.286;7.518;2022-11-20T04:45:39;9.82;;;6.05;;
10056;SDS011;5068;51.286;7.518;2022-11-20T04:47:12;10.90;;;5.68;;
10056;SDS011;5068;51.286;7.518;2022-11-20T04:48:45;9.60;;;5.32;;
10056;SDS011;5068;51.286;7.518;2022-11-20T04:50:20;10.52;;;6.03;;
10056;SDS011;5068;51.286;7.518;2022-11-20T04:51:53;9.10;;;5.50;;
10056;SDS011;5068;51.286;7.518;2022-11-20T04:53:26;9.07;;;5.05;;
10056;SDS011;5068;51.286;7.518;2022-11-20T04:54:58;10.60;;;5.55;;
10056;SDS011;5068;51.286;7.518;2022-11-20T04:56:32;11.20;;;5.40;;
10056;SDS011;5068;51.286;7.518;2022-11-20T04:58:05;10.60;;;5.57;;
10056;SDS011;5068;51.286;7.518;2022-11-20T04:59:37;9.23;;;5.32;;
10056;SDS011;5068;51.286;7.518;2022-11-20T05:01:13;11.02;;;5.43;;
10056;SDS011;5068;51.286;7.518;2022-11-20T05:02:49;10.07;;;5.53;;
10056;SDS011;5068;51.286;7.518;2022-11-20T05:04:22;9.48;;;5.65;;
10056;SDS011;5068;51.286;7.518;2022-11-20T05:05:56;9.85;;;5.57;;
10056;SDS011;5068;51.286;7.518;2022-11-20T05:07:31;9.77;;;5.20;;
10056;SDS011;5068;51.286;7.518;2022-11-20T05:09:05;8.52;;;5.25;;
10056;SDS011;5068;51.286;7.518;2022-11-20T05:10:38;9.60;;;5.68;;
10056;SDS011;5068;51.286;7.518;2022-11-20T05:12:11;11.05;;;6.30;;
10056;SDS011;5068;51.286;7.518;2022-11-20T05:13:45;8.68;;;4.95;;
10056;SDS011;5068;51.286;7.518;2022-11-20T05:15:17;10.68;;;5.68;;
10056;SDS011;5068;51.286;7.518;2022-11-20T05:16:52;8.52;;;5.38;;
10056;SDS011;5068;51.286;7.518;2022-11-20T05:18:27;10.02;;;5.78;;
10056;SDS011;5068;51.286;7.518;2022-11-20T05:19:59;10.30;;;5.63;;
10056;SDS011;5068;51.286;7.518;2022-11-20T05:21:32;9.57;;;5.60;;
10056;SDS011;5068;51.286;7.518;2022-11-20T05:23:05;10.02;;;5.00;;
10056;SDS011;5068;51.286;7.518;2022-11-20T05:24:39;8.27;;;4.70;;
10056;SDS011;5068;51.286;7.518;2022-11-20T05:26:12;8.43;;;4.75;;
10056;SDS011;5068;51.286;7.518;2022-11-20T05:27:48;8.82;;;5.55;;
10056;SDS011;5068;51.286;7.518;2022-11-20T05:29:21;9.02;;;5.10;;
10056;SDS011;5068;51.286;7.518;2022-11-20T05:30:54;9.10;;;5.63;;
10056;SDS011;5068;51.286;7.518;2022-11-20T05:32:28;10.13;;;5.30;;
10056;SDS011;5068;51.286;7.518;2022-11-20T05:34:01;9.73;;;5.28;;
10056;SDS011;5068;51.286;7.518;2022-11-20T05:35:35;9.90;;;5.40;;
10056;SDS011;5068;51.286;7.518;2022-11-20T05:37:07;11.07;;;5.18;;
10056;SDS011;5068;51.286;7.518;2022-11-20T05:38:40;9.68;;;5.85;;
10056;SDS011;5068;51.286;7.518;2022-11-20T05:40:20;10.27;;;5.47;;
10056;SDS011;5068;51.286;7.518;2022-11-20T05:41:54;8.32;;;5.30;;
10056;SDS011;5068;51.286;7.518;2022-11-20T05:43:42;9.68;;;5.70;;
10056;SDS011;5068;51.286;7.518;2022-11-20T05:45:17;9.35;;;5.53;;
10056;SDS011;5068;51.286;7.518;2022-11-20T05:46:50;8.82;;;5.47;;
10056;SDS011;5068;51.286;7.518;2022-11-20T05:48:24;10.07;;;5.32;;
10056;SDS011;5068;51.286;7.518;2022-11-20T05:49:57;9.07;;;5.10;;
10056;SDS011;5068;51.286;7.518;2022-11-20T05:51:31;9.18;;;5.32;;
10056;SDS011;5068;51.286;7.518;2022-11-20T05:53:04;10.93;;;5.70;;
10056;SDS011;5068;51.286;7.518;2022-11-20T05:54:37;9.57;;;5.43;;
10056;SDS011;5068;51.286;7.518;2022-11-20T05:56:11;11.25;;;5.80;;
10056;SDS011;5068;51.286;7.518;2022-11-20T05:57:47;10.48;;;5.00;;
10056;SDS011;5068;51.286;7.518;2022-11-20T05:59:21;8.65;;;5.15;;
10056;SDS011;5068;51.286;7.518;2022-11-20T06:00:54;10.27;;;5.55;;
10056;SDS011;5068;51.286;7.518;2022-11-20T06:02:37;9.32;;;5.25;;
10056;SDS011;5068;51.286;7.518;2022-11-20T06:04:12;10.10;;;5.47;;
10056;SDS011;5068;51.286;7.518;2022-11-20T06:05:45;9.20;;;5.30;;
10056;SDS011;5068;51.286;7.518;2022-11-20T06:07:18;8.73;;;4.90;;
10056;SDS011;5068;51.286;7.518;2022-11-20T06:08:51;10.38;;;5.40;;
10056;SDS011;5068;51.286;7.518;2022-11-20T06:10:24;9.02;;;5.10;;
10056;SDS011;5068;51.286;7.518;2022-11-20T06:11:58;9.68;;;5.68;;
10056;SDS011;5068;51.286;7.518;2022-11-20T06:13:31;8.48;;;4.72;;
10056;SDS011;5068;51.286;7.518;2022-11-20T06:15:12;8.85;;;5.25;;
10056;SDS011;5068;51.286;7.518;2022-11-20T06:16:45;9.55;;;5.25;;
10056;SDS011;5068;51.286;7.518;2022-11-20T06:18:19;8.77;;;5.20;;
10056;SDS011;5068;51.286;7.518;2022-11-20T06:19:54;8.23;;;5.10;;
10056;SDS011;5068;51.286;7.518;2022-11-20T06:21:27;9.90;;;5.28;;
10056;SDS011;5068;51.286;7.518;2022-11-20T06:23:00;9.82;;;5.72;;
10056;SDS011;5068;51.286;7.518;2022-11-20T06:24:34;10.38;;;5.47;;
10056;SDS011;5068;51.286;7.518;2022-11-20T06:26:08;11.43;;;5.60;;
10056;SDS011;5068;51.286;7.518;2022-11-20T06:27:43;10.00;;;6.15;;
10056;SDS011;5068;51.286;7.518;2022-11-20T06:29:16;9.48;;;5.78;;
10056;SDS011;5068;51.286;7.518;2022-11-20T06:30:50;11.10;;;6.47;;
10056;SDS011;5068;51.286;7.518;2022-11-20T06:32:22;9.15;;;5.50;;
10056;SDS011;5068;51.286;7.518;2022-11-20T06:33:55;10.65;;;5.20;;
10056;SDS011;5068;51.286;7.518;2022-11-20T06:35:30;7.93;;;5.07;;
10056;SDS011;5068;51.286;7.518;2022-11-20T06:37:02;10.60;;;5.90;;
10056;SDS011;5068;51.286;7.518;2022-11-20T06:38:36;10.02;;;5.85;;
10056;SDS011;5068;51.286;7.518;2022-11-20T06:40:10;9.77;;;5.68;;
10056;SDS011;5068;51.286;7.518;2022-11-20T06:41:44;9.07;;;5.28;;
10056;SDS011;5068;51.286;7.518;2022-11-20T06:43:17;10.50;;;5.50;;
10056;SDS011;5068;51.286;7.518;2022-11-20T06:44:50;8.95;;;4.85;;
10056;SDS011;5068;51.286;7.518;2022-11-20T06:46:23;10.60;;;5.78;;
10056;SDS011;5068;51.286;7.518;2022-11-20T06:47:57;9.40;;;5.68;;
10056;SDS011;5068;51.286;7.518;2022-11-20T06:49:29;11.40;;;5.60;;
10056;SDS011;5068;51.286;7.518;2022-11-20T06:51:05;11.32;;;6.35;;
10056;SDS011;5068;51.286;7.518;2022-11-20T06:52:40;9.95;;;5.68;;
10056;SDS011;5068;51.286;7.518;2022-11-20T06:54:14;10.57;;;5.85;;
10056;SDS011;5068;51.286;7.518;2022-11-20T06:55:47;11.07;;;6.50;;
10056;SDS011;5068;51.286;7.518;2022-11-20T06:57:22;10.63;;;6.07;;
10056;SDS011;5068;51.286;7.518;2022-11-20T06:58:55;11.07;;;6.65;;
10056;SDS011;5068;51.286;7.518;2022-11-20T07:00:29;10.70;;;6.15;;
10056;SDS011;5068;51.286;7.518;2022-11-20T07:02:02;12.15;;;6.10;;
10056;SDS011;5068;51.286;7.518;2022-11-20T07:03:35;9.73;;;5.78;;
10056;SDS011;5068;51.286;7.518;2022-11-20T07:05:09;10.57;;;6.65;;
10056;SDS011;5068;51.286;7.518;2022-11-20T07:06:44;9.82;;;5.18;;
10056;SDS011;5068;51.286;7.518;2022-11-20T07:08:17;10.43;;;5.47;;
10056;SDS011;5068;51.286;7.518;2022-11-20T07:09:50;9.00;;;5.40;;
10056;SDS011;5068;51.286;7.518;2022-11-20T07:11:23;8.43;;;5.13;;
10056;SDS011;5068;51.286;7.518;2022-11-20T07:12:57;9.85;;;6.00;;
10056;SDS011;5068;51.286;7.518;2022-11-20T07:14:29;8.20;;;5.32;;
10056;SDS011;5068;51.286;7.518;2022-11-20T07:16:03;10.38;;;6.05;;
10056;SDS011;5068;51.286;7.518;2022-11-20T07:17:39;10.18;;;5.85;;
10056;SDS011;5068;51.286;7.518;2022-11-20T07:19:12;11.13;;;6.10;;
10056;SDS011;5068;51.286;7.518;2022-11-20T07:20:45;9.55;;;5.57;;
10056;SDS011;5068;51.286;7.518;2022-11-20T07:22:20;9.02;;;5.35;;
10056;SDS011;5068;51.286;7.518;2022-11-20T07:23:53;9.80;;;5.70;;
10056;SDS011;5068;51.286;7.518;2022-11-20T07:25:27;9.23;;;5.90;;
10056;SDS011;5068;51.286;7.518;2022-11-20T07:27:01;11.55;;;5.70;;
10056;SDS011;5068;51.286;7.518;2022-11-20T07:28:35;10.77;;;5.55;;
10056;SDS011;5068;51.286;7.518;2022-11-20T07:30:09;11.15;;;5.90;;
10056;SDS011;5068;51.286;7.518;2022-11-20T07:31:45;8.88;;;5.30;;
10056;SDS011;5068;51.286;7.518;2022-11-20T07:33:18;9.50;;;5.75;;
10056;SDS011;5068;51.286;7.518;2022-11-20T07:34:52;8.77;;;5.65;;
10056;SDS011;5068;51.286;7.518;2022-11-20T07:36:25;8.90;;;5.70;;
10056;SDS011;5068;51.286;7.518;2022-11-20T07:38:00;9.75;;;5.40;;
10056;SDS011;5068;51.286;7.518;2022-11-20T07:39:34;12.32;;;6.53;;
10056;SDS011;5068;51.286;7.518;2022-11-20T07:41:08;10.10;;;6.47;;
10056;SDS011;5068;51.286;7.518;2022-11-20T07:42:46;10.90;;;5.93;;
10056;SDS011;5068;51.286;7.518;2022-11-20T07:44:21;10.27;;;5.15;;
10056;SDS011;5068;51.286;7.518;2022-11-20T07:45:54;9.27;;;5.90;;
10056;SDS011;5068;51.286;7.518;2022-11-20T07:47:28;11.20;;;6.50;;
10056;SDS011;5068;51.286;7.518;2022-11-20T07:49:07;10.95;;;6.50;;
10056;SDS011;5068;51.286;7.518;2022-11-20T07:50:40;10.07;;;5.45;;
10056;SDS011;5068;51.286;7.518;2022-11-20T07:52:13;10.38;;;5.47;;
10056;SDS011;5068;51.286;7.518;2022-11-20T07:53:48;9.43;;;5.80;;
10056;SDS011;5068;51.286;7.518;2022-11-20T07:55:23;9.07;;;5.30;;
10056;SDS011;5068;51.286;7.518;2022-11-20T07:56:57;9.10;;;4.97;;
10056;SDS011;5068;51.286;7.518;2022-11-20T07:58:30;9.77;;;5.57;;
10056;SDS011;5068;51.286;7.518;2022-11-20T08:00:06;12.77;;;6.20;;
10056;SDS011;5068;51.286;7.518;2022-11-20T08:01:43;11.05;;;5.80;;
10056;SDS011;5068;51.286;7.518;2022-11-20T08:03:19;10.18;;;5.60;;
10056;SDS011;5068;51.286;7.518;2022-11-20T08:04:56;10.23;;;5.55;;
10056;SDS011;5068;51.286;7.518;2022-11-20T08:06:29;9.48;;;5.65;;
10056;SDS011;5068;51.286;7.518;2022-11-20T08:08:02;10.13;;;6.18;;
10056;SDS011;5068;51.286;7.518;2022-11-20T08:09:39;9.77;;;5.60;;
10056;SDS011;5068;51.286;7.518;2022-11-20T08:11:12;9.38;;;5.90;;
10056;SDS011;5068;51.286;7.518;2022-11-20T08:13:03;9.98;;;5.72;;
10056;SDS011;5068;51.286;7.518;2022-11-20T08:14:55;9.43;;;5.60;;
10056;SDS011;5068;51.286;7.518;2022-11-20T08:16:30;9.13;;;5.25;;
10056;SDS011;5068;51.286;7.518;2022-11-20T08:18:04;11.25;;;6.43;;
10056;SDS011;5068;51.286;7.518;2022-11-20T08:20:00;11.23;;;6.20;;
10056;SDS011;5068;51.286;7.518;2022-11-20T08:21:33;10.45;;;6.00;;
10056;SDS011;5068;51.286;7.518;2022-11-20T08:23:09;10.68;;;6.13;;
10056;SDS011;5068;51.286;7.518;2022-11-20T08:24:44;10.90;;;6.60;;
10056;SDS011;5068;51.286;7.518;2022-11-20T08:26:17;9.32;;;5.65;;
10056;SDS011;5068;51.286;7.518;2022-11-20T08:27:50;11.18;;;5.75;;
10056;SDS011;5068;51.286;7.518;2022-11-20T08:29:30;10.40;;;6.15;;
10056;SDS011;5068;51.286;7.518;2022-11-20T08:31:04;11.27;;;5.85;;
10056;SDS011;5068;51.286;7.518;2022-11-20T08:32:37;10.15;;;6.28;;
10056;SDS011;5068;51.286;7.518;2022-11-20T08:34:10;10.98;;;5.88;;
10056;SDS011;5068;51.286;7.518;2022-11-20T08:35:49;9.50;;;5.10;;
10056;SDS011;5068;51.286;7.518;2022-11-20T08:37:22;9.18;;;5.45;;
10056;SDS011;5068;51.286;7.518;2022-11-20T08:38:55;10.05;;;5.93;;
10056;SDS011;5068;51.286;7.518;2022-11-20T08:40:30;11.52;;;6.22;;
10056;SDS011;5068;51.286;7.518;2022-11-20T08:42:06;8.98;;;6.35;;
10056;SDS011;5068;51.286;7.518;2022-11-20T08:43:40;8.68;;;5.00;;
10056;SDS011;5068;51.286;7.518;2022-11-20T08:45:13;9.38;;;5.55;;
10056;SDS011;5068;51.286;7.518;2022-11-20T08:46:47;8.73;;;5.80;;
10056;SDS011;5068;51.286;7.518;2022-11-20T08:48:20;10.25;;;5.95;;
10056;SDS011;5068;51.286;7.518;2022-11-20T08:49:53;11.52;;;6.00;;
10056;SDS011;5068;51.286;7.518;2022-11-20T08:51:26;9.18;;;5.40;;
10056;SDS011;5068;51.286;7.518;2022-11-20T08:53:02;10.15;;;5.85;;
10056;SDS011;5068;51.286;7.518;2022-11-20T08:54:36;10.07;;;5.85;;
10056;SDS011;5068;51.286;7.518;2022-11-20T08:56:10;9.18;;;5.43;;
10056;SDS011;5068;51.286;7.518;2022-11-20T08:59:21;9.73;;;5.68;;
10056;SDS011;5068;51.286;7.518;2022-11-20T09:01:14;9.40;;;5.43;;
10056;SDS011;5068;51.286;7.518;2022-11-20T09:02:48;10.57;;;6.22;;
10056;SDS011;5068;51.286;7.518;2022-11-20T09:04:21;9.48;;;5.15;;
10056;SDS011;5068;51.286;7.518;2022-11-20T09:06:05;10.75;;;5.90;;
10056;SDS011;5068;51.286;7.518;2022-11-20T09:09:13;9.05;;;5.55;;
10056;SDS011;5068;51.286;7.518;2022-11-20T09:10:50;10.57;;;6.10;;
10056;SDS011;5068;51.286;7.518;2022-11-20T09:12:25;12.57;;;6.35;;
10056;SDS011;5068;51.286;7.518;2022-11-20T09:13:58;11.23;;;6.28;;
10056;SDS011;5068;51.286;7.518;2022-11-20T09:15:34;9.35;;;6.00;;
10056;SDS011;5068;51.286;7.518;2022-11-20T09:17:09;11.18;;;6.65;;
10056;SDS011;5068;51.286;7.518;2022-11-20T09:18:44;9.90;;;5.55;;
10056;SDS011;5068;51.286;7.518;2022-11-20T09:20:32;9.15;;;5.30;;
10056;SDS011;5068;51.286;7.518;2022-11-20T09:22:05;8.95;;;5.70;;
10056;SDS011;5068;51.286;7.518;2022-11-20T09:23:39;8.98;;;5.45;;
10056;SDS011;5068;51.286;7.518;2022-11-20T09:25:13;9.95;;;5.80;;
10056;SDS011;5068;51.286;7.518;2022-11-20T09:26:47;10.05;;;5.80;;
10056;SDS011;5068;51.286;7.518;2022-11-20T09:28:21;9.65;;;5.60;;
10056;SDS011;5068;51.286;7.518;2022-11-20T09:29:55;9.90;;;5.75;;
10056;SDS011;5068;51.286;7.518;2022-11-20T09:31:29;9.23;;;5.38;;
10056;SDS011;5068;51.286;7.518;2022-11-20T09:33:03;9.55;;;5.13;;
10056;SDS011;5068;51.286;7.518;2022-11-20T09:34:38;9.18;;;5.28;;
10056;SDS011;5068;51.286;7.518;2022-11-20T09:36:11;8.45;;;5.22;;
10056;SDS011;5068;51.286;7.518;2022-11-20T09:37:44;8.85;;;5.40;;
10056;SDS011;5068;51.286;7.518;2022-11-20T09:39:18;10.15;;;5.30;;
10056;SDS011;5068;51.286;7.518;2022-11-20T09:40:53;8.15;;;4.75;;
10056;SDS011;5068;51.286;7.518;2022-11-20T09:42:32;9.05;;;5.00;;